sensor_id;sensor_type;location;lat;lon;timestamp;P1;durP1;ratioP1;P2;durP2;ratioP2
13048;SDS011;6591;51.446;5.404;2022-11-20T00:01:21;14.00;;;9.03;;
13048;SDS011;6591;51.446;5.404;2022-11-20T00:03:51;13.07;;;8.63;;
13048;SDS011;6591;51.446;5.404;2022-11-20T00:06:24;11.07;;;8.03;;
13048;SDS011;6591;51.446;5.404;2022-11-20T00:08:53;10.50;;;7.90;;
13048;SDS011;6591;51.446;5.404;2022-11-20T00:11:26;11.03;;;8.07;;
13048;SDS011;6591;51.446;5.404;2022-11-20T00:13:59;11.03;;;8.03;;
13048;SDS011;6591;51.446;5.404;2022-11-20T00:16:29;10.53;;;7.87;;
13048;SDS011;6591;51.446;5.404;2022-11-20T00:18:58;11.03;;;8.10;;
13048;SDS011;6591;51.446;5.404;2022-11-20T00:21:26;11.90;;;8.43;;
13048;SDS011;6591;51.446;5.404;2022-11-20T00:23:55;11.50;;;7.73;;
13048;SDS011;6591;51.446;5.404;2022-11-20T00:26:24;10.53;;;7.33;;
13048;SDS011;6591;51.446;5.404;2022-11-20T00:28:53;10.53;;;7.50;;
13048;SDS011;6591;51.446;5.404;2022-11-20T00:31:23;10.13;;;7.60;;
13048;SDS011;6591;51.446;5.404;2022-11-20T00:33:50;15.90;;;9.07;;
13048;SDS011;6591;51.446;5.404;2022-11-20T00:36:21;10.93;;;8.60;;
13048;SDS011;6591;51.446;5.404;2022-11-20T00:38:52;12.80;;;8.97;;
13048;SDS011;6591;51.446;5.404;2022-11-20T00:41:22;10.60;;;8.13;;
13048;SDS011;6591;51.446;5.404;2022-11-20T00:43:51;11.10;;;8.27;;
13048;SDS011;6591;51.446;5.404;2022-11-20T00:46:20;10.17;;;7.67;;
13048;SDS011;6591;51.446;5.404;2022-11-20T00:48:50;11.17;;;7.87;;
13048;SDS011;6591;51.446;5.404;2022-11-20T00:51:18;10.33;;;8.07;;
13048;SDS011;6591;51.446;5.404;2022-11-20T00:53:48;11.33;;;8.20;;
13048;SDS011;6591;51.446;5.404;2022-11-20T00:56:16;10.63;;;8.33;;
13048;SDS011;6591;51.446;5.404;2022-11-20T00:58:46;11.87;;;8.03;;
13048;SDS011;6591;51.446;5.404;2022-11-20T01:01:18;11.07;;;8.30;;
13048;SDS011;6591;51.446;5.404;2022-11-20T01:03:51;12.40;;;9.33;;
13048;SDS011;6591;51.446;5.404;2022-11-20T01:06:26;12.53;;;9.20;;
13048;SDS011;6591;51.446;5.404;2022-11-20T01:09:01;12.47;;;9.47;;
13048;SDS011;6591;51.446;5.404;2022-11-20T01:11:33;12.37;;;8.47;;
13048;SDS011;6591;51.446;5.404;2022-11-20T01:14:05;11.60;;;8.90;;
13048;SDS011;6591;51.446;5.404;2022-11-20T01:16:37;12.43;;;8.77;;
13048;SDS011;6591;51.446;5.404;2022-11-20T01:19:09;11.50;;;8.97;;
13048;SDS011;6591;51.446;5.404;2022-11-20T01:21:44;11.03;;;8.37;;
13048;SDS011;6591;51.446;5.404;2022-11-20T01:24:14;10.97;;;7.73;;
13048;SDS011;6591;51.446;5.404;2022-11-20T01:26:43;12.57;;;8.97;;
13048;SDS011;6591;51.446;5.404;2022-11-20T01:29:17;11.53;;;9.03;;
13048;SDS011;6591;51.446;5.404;2022-11-20T01:31:50;10.70;;;8.10;;
13048;SDS011;6591;51.446;5.404;2022-11-20T01:34:19;12.33;;;8.93;;
13048;SDS011;6591;51.446;5.404;2022-11-20T01:36:48;11.83;;;9.00;;
13048;SDS011;6591;51.446;5.404;2022-11-20T01:39:17;12.07;;;8.57;;
13048;SDS011;6591;51.446;5.404;2022-11-20T01:41:50;13.00;;;8.97;;
13048;SDS011;6591;51.446;5.404;2022-11-20T01:44:49;12.07;;;9.17;;
13048;SDS011;6591;51.446;5.404;2022-11-20T01:47:21;13.60;;;9.60;;
13048;SDS011;6591;51.446;5.404;2022-11-20T01:49:56;12.33;;;9.10;;
13048;SDS011;6591;51.446;5.404;2022-11-20T01:52:41;12.17;;;8.63;;
13048;SDS011;6591;51.446;5.404;2022-11-20T01:55:21;11.77;;;8.47;;
13048;SDS011;6591;51.446;5.404;2022-11-20T01:57:54;10.77;;;8.87;;
13048;SDS011;6591;51.446;5.404;2022-11-20T02:00:22;11.50;;;8.37;;
13048;SDS011;6591;51.446;5.404;2022-11-20T02:02:57;12.10;;;8.87;;
13048;SDS011;6591;51.446;5.404;2022-11-20T02:05:34;13.33;;;9.60;;
13048;SDS011;6591;51.446;5.404;2022-11-20T02:08:15;13.03;;;9.00;;
13048;SDS011;6591;51.446;5.404;2022-11-20T02:10:44;11.73;;;9.07;;
13048;SDS011;6591;51.446;5.404;2022-11-20T02:13:11;10.90;;;8.40;;
13048;SDS011;6591;51.446;5.404;2022-11-20T02:15:56;12.13;;;8.80;;
13048;SDS011;6591;51.446;5.404;2022-11-20T02:18:24;9.70;;;8.03;;
13048;SDS011;6591;51.446;5.404;2022-11-20T02:20:53;13.00;;;8.47;;
13048;SDS011;6591;51.446;5.404;2022-11-20T02:23:33;13.37;;;9.00;;
13048;SDS011;6591;51.446;5.404;2022-11-20T02:26:24;10.17;;;8.47;;
13048;SDS011;6591;51.446;5.404;2022-11-20T02:28:54;12.70;;;9.37;;
13048;SDS011;6591;51.446;5.404;2022-11-20T02:31:22;12.53;;;8.87;;
13048;SDS011;6591;51.446;5.404;2022-11-20T02:33:54;13.27;;;9.00;;
13048;SDS011;6591;51.446;5.404;2022-11-20T02:36:23;13.37;;;8.83;;
13048;SDS011;6591;51.446;5.404;2022-11-20T02:38:53;12.13;;;9.00;;
13048;SDS011;6591;51.446;5.404;2022-11-20T02:41:20;10.20;;;8.10;;
13048;SDS011;6591;51.446;5.404;2022-11-20T02:43:48;11.73;;;8.63;;
13048;SDS011;6591;51.446;5.404;2022-11-20T02:46:15;12.77;;;9.40;;
13048;SDS011;6591;51.446;5.404;2022-11-20T02:48:41;12.53;;;9.03;;
13048;SDS011;6591;51.446;5.404;2022-11-20T02:51:09;12.67;;;9.43;;
13048;SDS011;6591;51.446;5.404;2022-11-20T02:53:36;11.93;;;9.03;;
13048;SDS011;6591;51.446;5.404;2022-11-20T02:56:03;11.80;;;9.30;;
13048;SDS011;6591;51.446;5.404;2022-11-20T02:58:31;11.97;;;8.90;;
13048;SDS011;6591;51.446;5.404;2022-11-20T03:00:58;11.97;;;9.50;;
13048;SDS011;6591;51.446;5.404;2022-11-20T03:03:25;12.37;;;9.23;;
13048;SDS011;6591;51.446;5.404;2022-11-20T03:05:52;13.83;;;9.73;;
13048;SDS011;6591;51.446;5.404;2022-11-20T03:08:19;12.87;;;9.20;;
13048;SDS011;6591;51.446;5.404;2022-11-20T03:10:45;11.60;;;9.20;;
13048;SDS011;6591;51.446;5.404;2022-11-20T03:13:12;9.90;;;8.07;;
13048;SDS011;6591;51.446;5.404;2022-11-20T03:15:39;12.93;;;9.00;;
13048;SDS011;6591;51.446;5.404;2022-11-20T03:18:06;11.13;;;8.93;;
13048;SDS011;6591;51.446;5.404;2022-11-20T03:20:33;11.70;;;9.40;;
13048;SDS011;6591;51.446;5.404;2022-11-20T03:23:00;13.10;;;9.10;;
13048;SDS011;6591;51.446;5.404;2022-11-20T03:25:27;11.20;;;9.20;;
13048;SDS011;6591;51.446;5.404;2022-11-20T03:27:55;11.20;;;8.67;;
13048;SDS011;6591;51.446;5.404;2022-11-20T03:30:22;10.80;;;8.63;;
13048;SDS011;6591;51.446;5.404;2022-11-20T03:32:55;13.23;;;10.10;;
13048;SDS011;6591;51.446;5.404;2022-11-20T03:35:22;13.63;;;9.70;;
13048;SDS011;6591;51.446;5.404;2022-11-20T03:37:49;12.30;;;10.17;;
13048;SDS011;6591;51.446;5.404;2022-11-20T03:40:16;11.70;;;9.63;;
13048;SDS011;6591;51.446;5.404;2022-11-20T03:42:43;14.67;;;10.63;;
13048;SDS011;6591;51.446;5.404;2022-11-20T03:45:16;13.87;;;10.30;;
13048;SDS011;6591;51.446;5.404;2022-11-20T03:47:44;11.87;;;9.63;;
13048;SDS011;6591;51.446;5.404;2022-11-20T03:50:12;12.50;;;9.30;;
13048;SDS011;6591;51.446;5.404;2022-11-20T03:52:40;13.90;;;9.63;;
13048;SDS011;6591;51.446;5.404;2022-11-20T03:55:07;12.90;;;10.00;;
13048;SDS011;6591;51.446;5.404;2022-11-20T03:57:34;14.67;;;10.77;;
13048;SDS011;6591;51.446;5.404;2022-11-20T04:00:02;14.77;;;11.40;;
13048;SDS011;6591;51.446;5.404;2022-11-20T04:02:30;14.27;;;11.20;;
13048;SDS011;6591;51.446;5.404;2022-11-20T04:04:57;14.97;;;11.80;;
13048;SDS011;6591;51.446;5.404;2022-11-20T04:07:24;14.47;;;11.13;;
13048;SDS011;6591;51.446;5.404;2022-11-20T04:09:51;12.83;;;10.70;;
13048;SDS011;6591;51.446;5.404;2022-11-20T04:12:18;14.27;;;10.57;;
13048;SDS011;6591;51.446;5.404;2022-11-20T04:14:45;14.70;;;9.97;;
13048;SDS011;6591;51.446;5.404;2022-11-20T04:17:12;12.60;;;9.87;;
13048;SDS011;6591;51.446;5.404;2022-11-20T04:19:38;12.33;;;9.57;;
13048;SDS011;6591;51.446;5.404;2022-11-20T04:22:05;13.73;;;9.77;;
13048;SDS011;6591;51.446;5.404;2022-11-20T04:24:32;12.37;;;9.57;;
13048;SDS011;6591;51.446;5.404;2022-11-20T04:26:59;11.43;;;9.47;;
13048;SDS011;6591;51.446;5.404;2022-11-20T04:29:26;13.73;;;9.53;;
13048;SDS011;6591;51.446;5.404;2022-11-20T04:31:53;12.53;;;9.97;;
13048;SDS011;6591;51.446;5.404;2022-11-20T04:34:19;12.90;;;9.37;;
13048;SDS011;6591;51.446;5.404;2022-11-20T04:36:46;12.47;;;9.73;;
13048;SDS011;6591;51.446;5.404;2022-11-20T04:39:14;12.07;;;9.77;;
13048;SDS011;6591;51.446;5.404;2022-11-20T04:41:41;12.67;;;9.60;;
13048;SDS011;6591;51.446;5.404;2022-11-20T04:44:08;11.53;;;9.40;;
13048;SDS011;6591;51.446;5.404;2022-11-20T04:46:40;11.13;;;8.87;;
13048;SDS011;6591;51.446;5.404;2022-11-20T04:49:08;10.90;;;9.03;;
13048;SDS011;6591;51.446;5.404;2022-11-20T04:51:37;10.87;;;9.23;;
13048;SDS011;6591;51.446;5.404;2022-11-20T04:54:05;11.23;;;9.10;;
13048;SDS011;6591;51.446;5.404;2022-11-20T04:56:32;11.83;;;8.63;;
13048;SDS011;6591;51.446;5.404;2022-11-20T04:59:02;11.17;;;8.70;;
13048;SDS011;6591;51.446;5.404;2022-11-20T05:01:29;15.87;;;9.43;;
13048;SDS011;6591;51.446;5.404;2022-11-20T05:03:56;10.90;;;8.97;;
13048;SDS011;6591;51.446;5.404;2022-11-20T05:06:23;11.07;;;9.17;;
13048;SDS011;6591;51.446;5.404;2022-11-20T05:08:50;12.23;;;9.40;;
13048;SDS011;6591;51.446;5.404;2022-11-20T05:11:18;11.63;;;9.43;;
13048;SDS011;6591;51.446;5.404;2022-11-20T05:13:47;11.00;;;8.63;;
13048;SDS011;6591;51.446;5.404;2022-11-20T05:16:17;9.87;;;8.17;;
13048;SDS011;6591;51.446;5.404;2022-11-20T05:18:48;12.87;;;9.53;;
13048;SDS011;6591;51.446;5.404;2022-11-20T05:21:16;11.97;;;9.77;;
13048;SDS011;6591;51.446;5.404;2022-11-20T05:23:44;13.00;;;9.23;;
13048;SDS011;6591;51.446;5.404;2022-11-20T05:26:16;11.93;;;9.00;;
13048;SDS011;6591;51.446;5.404;2022-11-20T05:28:47;12.53;;;9.43;;
13048;SDS011;6591;51.446;5.404;2022-11-20T05:31:17;11.77;;;8.73;;
13048;SDS011;6591;51.446;5.404;2022-11-20T05:33:53;11.40;;;9.37;;
13048;SDS011;6591;51.446;5.404;2022-11-20T05:36:23;12.87;;;9.63;;
13048;SDS011;6591;51.446;5.404;2022-11-20T05:38:50;10.30;;;8.77;;
13048;SDS011;6591;51.446;5.404;2022-11-20T05:41:23;10.37;;;8.83;;
13048;SDS011;6591;51.446;5.404;2022-11-20T05:43:51;15.73;;;9.97;;
13048;SDS011;6591;51.446;5.404;2022-11-20T05:46:19;11.17;;;8.53;;
13048;SDS011;6591;51.446;5.404;2022-11-20T05:48:54;13.40;;;9.50;;
13048;SDS011;6591;51.446;5.404;2022-11-20T05:51:22;11.53;;;9.13;;
13048;SDS011;6591;51.446;5.404;2022-11-20T05:53:50;11.27;;;9.03;;
13048;SDS011;6591;51.446;5.404;2022-11-20T05:56:18;12.03;;;8.83;;
13048;SDS011;6591;51.446;5.404;2022-11-20T05:58:47;11.60;;;9.60;;
13048;SDS011;6591;51.446;5.404;2022-11-20T06:01:22;10.73;;;8.93;;
13048;SDS011;6591;51.446;5.404;2022-11-20T06:03:53;12.03;;;9.60;;
13048;SDS011;6591;51.446;5.404;2022-11-20T06:06:20;12.17;;;8.80;;
13048;SDS011;6591;51.446;5.404;2022-11-20T06:08:47;12.57;;;9.83;;
13048;SDS011;6591;51.446;5.404;2022-11-20T06:11:15;13.57;;;9.93;;
13048;SDS011;6591;51.446;5.404;2022-11-20T06:13:43;11.67;;;9.07;;
13048;SDS011;6591;51.446;5.404;2022-11-20T06:16:12;11.77;;;9.20;;
13048;SDS011;6591;51.446;5.404;2022-11-20T06:18:42;12.33;;;9.43;;
13048;SDS011;6591;51.446;5.404;2022-11-20T06:21:10;11.53;;;9.20;;
13048;SDS011;6591;51.446;5.404;2022-11-20T06:23:39;12.10;;;9.10;;
13048;SDS011;6591;51.446;5.404;2022-11-20T06:26:11;11.30;;;8.93;;
13048;SDS011;6591;51.446;5.404;2022-11-20T06:28:49;10.70;;;8.93;;
13048;SDS011;6591;51.446;5.404;2022-11-20T06:31:18;12.60;;;9.13;;
13048;SDS011;6591;51.446;5.404;2022-11-20T06:33:48;11.40;;;8.57;;
13048;SDS011;6591;51.446;5.404;2022-11-20T06:36:17;11.87;;;8.73;;
13048;SDS011;6591;51.446;5.404;2022-11-20T06:38:46;10.30;;;8.80;;
13048;SDS011;6591;51.446;5.404;2022-11-20T06:41:15;10.80;;;8.80;;
13048;SDS011;6591;51.446;5.404;2022-11-20T06:43:45;12.27;;;9.03;;
13048;SDS011;6591;51.446;5.404;2022-11-20T06:46:13;10.87;;;8.70;;
13048;SDS011;6591;51.446;5.404;2022-11-20T06:48:45;11.40;;;8.83;;
13048;SDS011;6591;51.446;5.404;2022-11-20T06:51:13;11.07;;;9.20;;
13048;SDS011;6591;51.446;5.404;2022-11-20T06:53:41;11.17;;;9.23;;
13048;SDS011;6591;51.446;5.404;2022-11-20T06:56:08;12.47;;;9.50;;
13048;SDS011;6591;51.446;5.404;2022-11-20T06:58:35;12.50;;;9.67;;
13048;SDS011;6591;51.446;5.404;2022-11-20T07:01:04;12.20;;;9.30;;
13048;SDS011;6591;51.446;5.404;2022-11-20T07:03:36;15.00;;;9.13;;
13048;SDS011;6591;51.446;5.404;2022-11-20T07:06:04;10.40;;;9.00;;
13048;SDS011;6591;51.446;5.404;2022-11-20T07:08:32;11.47;;;9.50;;
13048;SDS011;6591;51.446;5.404;2022-11-20T07:11:02;11.83;;;9.17;;
13048;SDS011;6591;51.446;5.404;2022-11-20T07:13:31;15.27;;;10.57;;
13048;SDS011;6591;51.446;5.404;2022-11-20T07:16:00;11.60;;;9.83;;
13048;SDS011;6591;51.446;5.404;2022-11-20T07:18:29;13.10;;;10.03;;
13048;SDS011;6591;51.446;5.404;2022-11-20T07:20:59;12.10;;;9.40;;
13048;SDS011;6591;51.446;5.404;2022-11-20T07:23:29;10.87;;;9.03;;
13048;SDS011;6591;51.446;5.404;2022-11-20T07:25:56;11.57;;;9.27;;
13048;SDS011;6591;51.446;5.404;2022-11-20T07:28:23;11.93;;;9.40;;
13048;SDS011;6591;51.446;5.404;2022-11-20T07:30:50;12.13;;;9.10;;
13048;SDS011;6591;51.446;5.404;2022-11-20T07:33:20;12.17;;;9.77;;
13048;SDS011;6591;51.446;5.404;2022-11-20T07:35:47;12.90;;;9.97;;
13048;SDS011;6591;51.446;5.404;2022-11-20T07:38:16;12.10;;;9.77;;
13048;SDS011;6591;51.446;5.404;2022-11-20T07:40:43;12.47;;;9.93;;
13048;SDS011;6591;51.446;5.404;2022-11-20T07:43:10;11.43;;;9.37;;
13048;SDS011;6591;51.446;5.404;2022-11-20T07:45:37;11.30;;;9.03;;
13048;SDS011;6591;51.446;5.404;2022-11-20T07:48:04;13.03;;;9.60;;
13048;SDS011;6591;51.446;5.404;2022-11-20T07:50:31;10.50;;;8.87;;
13048;SDS011;6591;51.446;5.404;2022-11-20T07:53:02;13.90;;;10.07;;
13048;SDS011;6591;51.446;5.404;2022-11-20T07:55:30;10.93;;;8.80;;
13048;SDS011;6591;51.446;5.404;2022-11-20T07:57:58;12.10;;;9.60;;
13048;SDS011;6591;51.446;5.404;2022-11-20T08:00:26;12.63;;;10.23;;
13048;SDS011;6591;51.446;5.404;2022-11-20T08:02:53;12.67;;;9.60;;
13048;SDS011;6591;51.446;5.404;2022-11-20T08:05:20;11.47;;;9.13;;
13048;SDS011;6591;51.446;5.404;2022-11-20T08:07:47;11.70;;;9.37;;
13048;SDS011;6591;51.446;5.404;2022-11-20T08:10:15;13.33;;;9.70;;
13048;SDS011;6591;51.446;5.404;2022-11-20T08:12:46;11.50;;;9.53;;
13048;SDS011;6591;51.446;5.404;2022-11-20T08:15:34;12.27;;;9.30;;
13048;SDS011;6591;51.446;5.404;2022-11-20T08:18:03;12.17;;;9.70;;
13048;SDS011;6591;51.446;5.404;2022-11-20T08:20:57;10.67;;;9.20;;
13048;SDS011;6591;51.446;5.404;2022-11-20T08:23:29;12.73;;;9.60;;
13048;SDS011;6591;51.446;5.404;2022-11-20T08:25:56;12.43;;;9.53;;
13048;SDS011;6591;51.446;5.404;2022-11-20T08:28:23;12.17;;;9.80;;
13048;SDS011;6591;51.446;5.404;2022-11-20T08:30:50;10.53;;;8.93;;
13048;SDS011;6591;51.446;5.404;2022-11-20T08:33:17;13.10;;;10.10;;
13048;SDS011;6591;51.446;5.404;2022-11-20T08:35:44;13.03;;;9.77;;
13048;SDS011;6591;51.446;5.404;2022-11-20T08:38:11;11.90;;;9.90;;
13048;SDS011;6591;51.446;5.404;2022-11-20T08:40:38;13.40;;;10.27;;
13048;SDS011;6591;51.446;5.404;2022-11-20T08:43:05;12.47;;;9.33;;
13048;SDS011;6591;51.446;5.404;2022-11-20T08:45:32;12.83;;;9.13;;
13048;SDS011;6591;51.446;5.404;2022-11-20T08:48:03;13.23;;;10.83;;
13048;SDS011;6591;51.446;5.404;2022-11-20T08:50:31;13.10;;;10.03;;
13048;SDS011;6591;51.446;5.404;2022-11-20T08:53:05;12.53;;;9.87;;
13048;SDS011;6591;51.446;5.404;2022-11-20T08:55:32;13.87;;;10.43;;
13048;SDS011;6591;51.446;5.404;2022-11-20T08:58:04;14.93;;;11.03;;
13048;SDS011;6591;51.446;5.404;2022-11-20T09:00:32;16.73;;;10.83;;
13048;SDS011;6591;51.446;5.404;2022-11-20T09:03:00;14.00;;;11.13;;
13048;SDS011;6591;51.446;5.404;2022-11-20T09:05:28;15.60;;;11.50;;
13048;SDS011;6591;51.446;5.404;2022-11-20T09:07:58;20.20;;;11.87;;
13048;SDS011;6591;51.446;5.404;2022-11-20T09:10:26;19.93;;;13.57;;
13048;SDS011;6591;51.446;5.404;2022-11-20T09:12:54;21.30;;;14.90;;
13048;SDS011;6591;51.446;5.404;2022-11-20T09:15:22;23.53;;;15.30;;
13048;SDS011;6591;51.446;5.404;2022-11-20T09:17:55;22.77;;;14.77;;
13048;SDS011;6591;51.446;5.404;2022-11-20T09:20:25;22.83;;;13.47;;
13048;SDS011;6591;51.446;5.404;2022-11-20T09:22:55;22.83;;;14.87;;
13048;SDS011;6591;51.446;5.404;2022-11-20T09:25:23;24.33;;;15.03;;
13048;SDS011;6591;51.446;5.404;2022-11-20T09:27:56;22.30;;;14.33;;
13048;SDS011;6591;51.446;5.404;2022-11-20T09:30:25;21.53;;;13.70;;
13048;SDS011;6591;51.446;5.404;2022-11-20T09:32:52;24.00;;;14.90;;
13048;SDS011;6591;51.446;5.404;2022-11-20T09:35:19;23.57;;;14.87;;
13048;SDS011;6591;51.446;5.404;2022-11-20T09:37:47;23.90;;;15.33;;
13048;SDS011;6591;51.446;5.404;2022-11-20T09:40:19;22.67;;;14.67;;
13048;SDS011;6591;51.446;5.404;2022-11-20T09:43:03;21.43;;;14.27;;
13048;SDS011;6591;51.446;5.404;2022-11-20T09:48:57;21.77;;;14.43;;
13048;SDS011;6591;51.446;5.404;2022-11-20T09:55:14;21.57;;;14.17;;
13048;SDS011;6591;51.446;5.404;2022-11-20T09:57:43;25.40;;;15.20;;
13048;SDS011;6591;51.446;5.404;2022-11-20T10:00:15;24.50;;;15.37;;
13048;SDS011;6591;51.446;5.404;2022-11-20T10:02:48;23.37;;;15.30;;
13048;SDS011;6591;51.446;5.404;2022-11-20T10:08:19;27.20;;;16.33;;
13048;SDS011;6591;51.446;5.404;2022-11-20T10:11:13;26.23;;;16.17;;
13048;SDS011;6591;51.446;5.404;2022-11-20T10:19:33;24.37;;;16.23;;
13048;SDS011;6591;51.446;5.404;2022-11-20T10:22:51;26.30;;;17.20;;
13048;SDS011;6591;51.446;5.404;2022-11-20T10:26:03;25.20;;;16.03;;
13048;SDS011;6591;51.446;5.404;2022-11-20T10:31:33;24.07;;;16.30;;
13048;SDS011;6591;51.446;5.404;2022-11-20T10:34:12;24.37;;;17.07;;
13048;SDS011;6591;51.446;5.404;2022-11-20T10:36:59;22.67;;;16.03;;
13048;SDS011;6591;51.446;5.404;2022-11-20T10:42:28;24.77;;;16.43;;
13048;SDS011;6591;51.446;5.404;2022-11-20T10:45:38;22.67;;;16.30;;
13048;SDS011;6591;51.446;5.404;2022-11-20T10:48:14;23.53;;;15.77;;
13048;SDS011;6591;51.446;5.404;2022-11-20T10:53:44;24.07;;;16.50;;
13048;SDS011;6591;51.446;5.404;2022-11-20T10:56:30;21.03;;;15.53;;
13048;SDS011;6591;51.446;5.404;2022-11-20T11:01:53;23.57;;;15.17;;
13048;SDS011;6591;51.446;5.404;2022-11-20T11:04:28;23.07;;;16.20;;
13048;SDS011;6591;51.446;5.404;2022-11-20T11:07:16;22.13;;;15.10;;
13048;SDS011;6591;51.446;5.404;2022-11-20T11:09:56;23.67;;;15.67;;
13048;SDS011;6591;51.446;5.404;2022-11-20T11:12:24;22.43;;;15.43;;
13048;SDS011;6591;51.446;5.404;2022-11-20T11:14:55;21.67;;;15.57;;
13048;SDS011;6591;51.446;5.404;2022-11-20T11:20:14;25.23;;;16.03;;
13048;SDS011;6591;51.446;5.404;2022-11-20T11:22:45;23.07;;;15.97;;
13048;SDS011;6591;51.446;5.404;2022-11-20T11:25:23;23.60;;;16.33;;
13048;SDS011;6591;51.446;5.404;2022-11-20T11:27:53;21.97;;;15.67;;
13048;SDS011;6591;51.446;5.404;2022-11-20T11:30:48;24.10;;;16.33;;
13048;SDS011;6591;51.446;5.404;2022-11-20T11:33:19;22.70;;;15.03;;
13048;SDS011;6591;51.446;5.404;2022-11-20T11:36:00;22.10;;;16.07;;
13048;SDS011;6591;51.446;5.404;2022-11-20T11:38:44;22.13;;;15.43;;
13048;SDS011;6591;51.446;5.404;2022-11-20T11:41:19;25.53;;;17.47;;
13048;SDS011;6591;51.446;5.404;2022-11-20T11:43:56;24.80;;;16.27;;
13048;SDS011;6591;51.446;5.404;2022-11-20T11:46:57;25.13;;;16.37;;
13048;SDS011;6591;51.446;5.404;2022-11-20T11:49:25;23.87;;;15.77;;
13048;SDS011;6591;51.446;5.404;2022-11-20T12:00:09;22.80;;;14.70;;
13048;SDS011;6591;51.446;5.404;2022-11-20T12:05:22;23.37;;;15.47;;
13048;SDS011;6591;51.446;5.404;2022-11-20T12:08:15;25.13;;;16.37;;
13048;SDS011;6591;51.446;5.404;2022-11-20T12:10:56;23.13;;;15.10;;
13048;SDS011;6591;51.446;5.404;2022-11-20T12:13:39;22.77;;;15.63;;
13048;SDS011;6591;51.446;5.404;2022-11-20T12:16:50;23.67;;;15.63;;
13048;SDS011;6591;51.446;5.404;2022-11-20T12:19:18;25.10;;;15.83;;
13048;SDS011;6591;51.446;5.404;2022-11-20T12:21:49;24.33;;;15.90;;
13048;SDS011;6591;51.446;5.404;2022-11-20T12:24:39;22.60;;;14.80;;
13048;SDS011;6591;51.446;5.404;2022-11-20T12:30:14;22.70;;;14.60;;
13048;SDS011;6591;51.446;5.404;2022-11-20T12:36:03;23.53;;;16.13;;
13048;SDS011;6591;51.446;5.404;2022-11-20T12:41:50;26.93;;;15.50;;
13048;SDS011;6591;51.446;5.404;2022-11-20T12:48:27;23.53;;;15.67;;
13048;SDS011;6591;51.446;5.404;2022-11-20T12:51:18;22.27;;;15.53;;
13048;SDS011;6591;51.446;5.404;2022-11-20T12:57:44;27.10;;;16.47;;
13048;SDS011;6591;51.446;5.404;2022-11-20T13:01:13;22.80;;;15.03;;
13048;SDS011;6591;51.446;5.404;2022-11-20T13:07:08;26.23;;;15.40;;
13048;SDS011;6591;51.446;5.404;2022-11-20T13:09:44;22.53;;;15.23;;
13048;SDS011;6591;51.446;5.404;2022-11-20T13:12:25;24.93;;;15.73;;
13048;SDS011;6591;51.446;5.404;2022-11-20T13:18:01;23.93;;;15.73;;
13048;SDS011;6591;51.446;5.404;2022-11-20T13:20:34;24.77;;;15.63;;
13048;SDS011;6591;51.446;5.404;2022-11-20T13:23:02;24.23;;;15.67;;
13048;SDS011;6591;51.446;5.404;2022-11-20T13:25:30;24.07;;;16.23;;
13048;SDS011;6591;51.446;5.404;2022-11-20T13:28:03;24.33;;;15.43;;
13048;SDS011;6591;51.446;5.404;2022-11-20T13:30:55;26.57;;;15.90;;
13048;SDS011;6591;51.446;5.404;2022-11-20T13:33:33;24.87;;;15.93;;
13048;SDS011;6591;51.446;5.404;2022-11-20T13:36:19;25.23;;;16.37;;
13048;SDS011;6591;51.446;5.404;2022-11-20T13:38:54;23.90;;;15.80;;
13048;SDS011;6591;51.446;5.404;2022-11-20T13:41:29;26.10;;;15.57;;
13048;SDS011;6591;51.446;5.404;2022-11-20T13:44:14;24.20;;;15.77;;
13048;SDS011;6591;51.446;5.404;2022-11-20T13:46:50;24.00;;;15.27;;
13048;SDS011;6591;51.446;5.404;2022-11-20T13:49:25;21.30;;;15.03;;
13048;SDS011;6591;51.446;5.404;2022-11-20T13:55:23;22.93;;;15.73;;
13048;SDS011;6591;51.446;5.404;2022-11-20T14:01:21;21.43;;;14.50;;
13048;SDS011;6591;51.446;5.404;2022-11-20T14:03:52;21.80;;;14.60;;
13048;SDS011;6591;51.446;5.404;2022-11-20T14:06:41;26.57;;;15.63;;
13048;SDS011;6591;51.446;5.404;2022-11-20T14:09:27;21.50;;;13.93;;
13048;SDS011;6591;51.446;5.404;2022-11-20T14:11:58;22.07;;;14.97;;
13048;SDS011;6591;51.446;5.404;2022-11-20T14:14:29;24.40;;;15.67;;
13048;SDS011;6591;51.446;5.404;2022-11-20T14:17:06;25.70;;;16.33;;
13048;SDS011;6591;51.446;5.404;2022-11-20T14:20:05;23.57;;;15.43;;
13048;SDS011;6591;51.446;5.404;2022-11-20T14:22:47;23.13;;;15.13;;
13048;SDS011;6591;51.446;5.404;2022-11-20T14:25:20;24.53;;;15.73;;
13048;SDS011;6591;51.446;5.404;2022-11-20T14:27:53;26.00;;;16.07;;
13048;SDS011;6591;51.446;5.404;2022-11-20T14:30:42;26.43;;;15.53;;
13048;SDS011;6591;51.446;5.404;2022-11-20T14:33:14;27.47;;;15.60;;
13048;SDS011;6591;51.446;5.404;2022-11-20T14:35:46;22.50;;;14.63;;
13048;SDS011;6591;51.446;5.404;2022-11-20T14:38:17;23.00;;;14.73;;
13048;SDS011;6591;51.446;5.404;2022-11-20T14:40:48;23.87;;;15.57;;
13048;SDS011;6591;51.446;5.404;2022-11-20T14:43:22;24.93;;;15.47;;
13048;SDS011;6591;51.446;5.404;2022-11-20T14:46:00;26.77;;;14.83;;
13048;SDS011;6591;51.446;5.404;2022-11-20T14:48:41;24.67;;;16.43;;
13048;SDS011;6591;51.446;5.404;2022-11-20T14:51:28;23.07;;;14.70;;
13048;SDS011;6591;51.446;5.404;2022-11-20T14:54:20;22.33;;;13.37;;
13048;SDS011;6591;51.446;5.404;2022-11-20T14:56:55;23.93;;;15.13;;
13048;SDS011;6591;51.446;5.404;2022-11-20T14:59:31;24.87;;;15.63;;
13048;SDS011;6591;51.446;5.404;2022-11-20T15:02:02;23.10;;;15.07;;
13048;SDS011;6591;51.446;5.404;2022-11-20T15:04:44;22.97;;;14.60;;
13048;SDS011;6591;51.446;5.404;2022-11-20T15:07:23;23.70;;;14.80;;
13048;SDS011;6591;51.446;5.404;2022-11-20T15:10:09;23.50;;;15.17;;
13048;SDS011;6591;51.446;5.404;2022-11-20T15:12:59;24.57;;;15.80;;
13048;SDS011;6591;51.446;5.404;2022-11-20T15:15:51;23.23;;;15.20;;
13048;SDS011;6591;51.446;5.404;2022-11-20T15:18:22;25.20;;;15.47;;
13048;SDS011;6591;51.446;5.404;2022-11-20T15:20:57;26.87;;;16.47;;
13048;SDS011;6591;51.446;5.404;2022-11-20T15:23:29;19.83;;;13.37;;
13048;SDS011;6591;51.446;5.404;2022-11-20T15:25:56;20.67;;;14.80;;
13048;SDS011;6591;51.446;5.404;2022-11-20T15:28:33;27.50;;;16.40;;
13048;SDS011;6591;51.446;5.404;2022-11-20T15:31:11;21.50;;;13.70;;
13048;SDS011;6591;51.446;5.404;2022-11-20T15:33:40;22.27;;;14.10;;
13048;SDS011;6591;51.446;5.404;2022-11-20T15:36:08;21.50;;;14.13;;
13048;SDS011;6591;51.446;5.404;2022-11-20T15:38:36;21.90;;;14.50;;
13048;SDS011;6591;51.446;5.404;2022-11-20T15:41:03;20.93;;;13.53;;
13048;SDS011;6591;51.446;5.404;2022-11-20T15:43:31;19.97;;;12.77;;
13048;SDS011;6591;51.446;5.404;2022-11-20T15:46:11;18.83;;;12.33;;
13048;SDS011;6591;51.446;5.404;2022-11-20T15:48:42;19.73;;;11.83;;
13048;SDS011;6591;51.446;5.404;2022-11-20T15:53:56;19.97;;;12.70;;
13048;SDS011;6591;51.446;5.404;2022-11-20T15:56:24;16.53;;;11.43;;
13048;SDS011;6591;51.446;5.404;2022-11-20T15:58:52;16.70;;;11.07;;
13048;SDS011;6591;51.446;5.404;2022-11-20T16:01:20;18.37;;;11.37;;
13048;SDS011;6591;51.446;5.404;2022-11-20T16:03:48;17.90;;;10.70;;
13048;SDS011;6591;51.446;5.404;2022-11-20T16:06:15;19.03;;;9.73;;
13048;SDS011;6591;51.446;5.404;2022-11-20T16:08:43;13.40;;;9.73;;
13048;SDS011;6591;51.446;5.404;2022-11-20T16:11:13;15.33;;;8.50;;
13048;SDS011;6591;51.446;5.404;2022-11-20T16:13:43;12.73;;;8.43;;
13048;SDS011;6591;51.446;5.404;2022-11-20T16:16:33;12.87;;;7.63;;
13048;SDS011;6591;51.446;5.404;2022-11-20T16:19:02;13.80;;;7.40;;
13048;SDS011;6591;51.446;5.404;2022-11-20T16:21:30;16.57;;;6.87;;
13048;SDS011;6591;51.446;5.404;2022-11-20T16:23:58;10.67;;;6.90;;
13048;SDS011;6591;51.446;5.404;2022-11-20T16:26:32;12.97;;;6.03;;
13048;SDS011;6591;51.446;5.404;2022-11-20T16:28:59;7.20;;;5.60;;